createdAt,value
2023-10-16T00:01:12.488Z,1.17
2023-10-16T00:03:43.331Z,1.30
2023-10-16T00:06:15.408Z,1.08
2023-10-16T00:08:50.315Z,1.47
2023-10-16T00:11:19.330Z,1.13
2023-10-16T00:13:51.004Z,1.38
2023-10-16T00:16:19.402Z,1.08
2023-10-16T00:18:47.047Z,1.23
2023-10-16T00:21:14.632Z,1.20
2023-10-16T00:23:42.625Z,1.45
2023-10-16T00:26:14.508Z,1.20
2023-10-16T00:28:45.811Z,1.10
2023-10-16T00:31:21.797Z,1.23
2023-10-16T00:33:52.697Z,0.90
2023-10-16T00:36:19.680Z,1.05
2023-10-16T00:38:52.796Z,0.93
2023-10-16T00:41:25.039Z,0.65
2023-10-16T00:43:52.144Z,0.85
2023-10-16T00:46:37.965Z,0.70
2023-10-16T00:49:08.496Z,1.60
2023-10-16T00:51:41.930Z,0.95
2023-10-16T00:54:19.585Z,0.93
2023-10-16T00:56:53.061Z,1.10
2023-10-16T00:59:19.687Z,0.80
2023-10-16T01:01:47.438Z,1.00
2023-10-16T01:04:15.537Z,0.75
2023-10-16T01:06:42.757Z,0.70
2023-10-16T01:09:09.546Z,0.85
2023-10-16T01:11:39.060Z,0.53
2023-10-16T01:14:06.682Z,0.80
2023-10-16T01:16:33.926Z,0.85
2023-10-16T01:19:07.778Z,1.00
2023-10-16T01:21:34.797Z,0.80
2023-10-16T01:24:04.986Z,0.77
2023-10-16T01:26:31.451Z,0.68
2023-10-16T01:28:57.887Z,0.70
2023-10-16T01:31:24.645Z,0.85
2023-10-16T01:33:52.442Z,0.80
2023-10-16T01:36:18.961Z,0.80
2023-10-16T01:38:45.352Z,0.93
2023-10-16T01:41:14.896Z,1.10
2023-10-16T01:43:44.333Z,0.95
2023-10-16T01:46:13.673Z,1.17
2023-10-16T01:48:43.172Z,0.83
2023-10-16T01:51:10.488Z,1.27
2023-10-16T01:53:44.171Z,1.65
2023-10-16T01:56:16.458Z,1.40
2023-10-16T01:58:47.590Z,1.00
2023-10-16T02:01:21.640Z,0.83
2023-10-16T02:03:49.699Z,1.42
2023-10-16T02:06:17.477Z,1.20
2023-10-16T02:08:46.622Z,1.10
2023-10-16T02:11:13.622Z,1.55
2023-10-16T02:13:44.558Z,1.37
2023-10-16T02:16:14.095Z,1.88
2023-10-16T02:18:46.762Z,2.33
2023-10-16T02:21:14.429Z,1.50
2023-10-16T02:23:47.125Z,1.52
2023-10-16T02:26:19.380Z,1.63
2023-10-16T02:28:54.772Z,1.83
2023-10-16T02:31:21.930Z,1.58
2023-10-16T02:33:56.689Z,1.63
2023-10-16T02:36:23.637Z,1.65
2023-10-16T02:38:54.489Z,1.30
2023-10-16T02:41:21.195Z,1.77
2023-10-16T02:43:48.247Z,1.70
2023-10-16T02:46:15.311Z,1.63
2023-10-16T02:48:42.780Z,2.25
2023-10-16T02:51:13.312Z,1.63
2023-10-16T02:53:42.575Z,1.58
2023-10-16T02:56:09.930Z,1.80
2023-10-16T02:58:56.222Z,1.52
2023-10-16T03:01:23.463Z,1.52
2023-10-16T03:03:50.470Z,1.40
2023-10-16T03:06:17.954Z,1.90
2023-10-16T03:08:49.680Z,1.75
2023-10-16T03:11:16.969Z,1.63
2023-10-16T03:13:49.031Z,1.88
2023-10-16T03:16:24.103Z,1.90
2023-10-16T03:18:51.609Z,1.60
2023-10-16T03:21:27.949Z,1.60
2023-10-16T03:23:54.693Z,1.40
2023-10-16T03:26:32.465Z,1.60
2023-10-16T03:29:06.590Z,1.53
2023-10-16T03:31:37.404Z,1.70
2023-10-16T03:34:04.432Z,2.28
2023-10-16T03:36:30.973Z,1.50
2023-10-16T03:38:58.686Z,1.70
2023-10-16T03:41:25.224Z,1.70
2023-10-16T03:44:00.020Z,1.60
2023-10-16T03:46:27.860Z,1.42
2023-10-16T03:48:56.070Z,1.48
2023-10-16T03:51:22.610Z,1.83
2023-10-16T03:53:53.412Z,1.17
2023-10-16T03:56:20.932Z,1.70
2023-10-16T03:58:47.879Z,1.75
2023-10-16T04:01:18.292Z,1.17
2023-10-16T04:03:52.016Z,1.45
2023-10-16T04:06:22.250Z,1.40
2023-10-16T04:08:50.391Z,1.58
2023-10-16T04:11:17.895Z,1.40
2023-10-16T04:13:50.286Z,1.42
2023-10-16T04:16:36.603Z,1.83
2023-10-16T04:19:26.267Z,0.97
2023-10-16T04:21:52.754Z,1.60
2023-10-16T04:24:28.428Z,1.63
2023-10-16T04:27:19.057Z,1.40
2023-10-16T04:30:13.344Z,1.20
2023-10-16T04:32:57.260Z,1.20
2023-10-16T04:35:33.152Z,1.73
2023-10-16T04:38:19.629Z,1.10
2023-10-16T04:41:08.788Z,1.20
2023-10-16T04:44:01.103Z,1.02
2023-10-16T04:46:47.511Z,1.00
2023-10-16T04:49:15.464Z,1.40
2023-10-16T04:51:53.681Z,1.88
2023-10-16T04:54:41.659Z,1.17
2023-10-16T04:57:08.081Z,1.10
2023-10-16T04:59:38.193Z,1.30
2023-10-16T05:02:23.276Z,1.35
2023-10-16T05:05:19.104Z,1.08
2023-10-16T05:07:54.698Z,0.93
2023-10-16T05:10:40.980Z,1.30
2023-10-16T05:13:40.797Z,1.27
2023-10-16T05:16:26.415Z,1.10
2023-10-16T05:19:04.290Z,1.27
2023-10-16T05:24:30.773Z,1.20
2023-10-16T05:27:15.530Z,1.40
2023-10-16T05:30:00.839Z,0.90
2023-10-16T05:32:45.786Z,1.60
2023-10-16T05:35:30.573Z,1.05
2023-10-16T05:38:15.449Z,1.75
2023-10-16T05:41:01.345Z,1.20
2023-10-16T05:43:46.243Z,1.17
2023-10-16T05:46:31.100Z,1.40
2023-10-16T05:49:15.834Z,1.48
2023-10-16T05:52:00.790Z,1.10
2023-10-16T05:54:45.575Z,1.00
2023-10-16T05:57:37.957Z,1.20
2023-10-16T06:00:23.476Z,1.38
2023-10-16T06:03:08.765Z,1.50
2023-10-16T06:05:54.034Z,1.25
2023-10-16T06:08:38.861Z,1.07
2023-10-16T06:11:23.472Z,1.30
2023-10-16T06:14:08.616Z,1.23
2023-10-16T06:16:36.262Z,1.10
2023-10-16T06:19:15.788Z,1.42
2023-10-16T06:21:58.025Z,1.40
2023-10-16T06:24:33.929Z,1.33
2023-10-16T06:27:03.107Z,1.27
2023-10-16T06:29:36.565Z,1.30
2023-10-16T06:32:19.780Z,1.30
2023-10-16T06:34:50.557Z,1.83
2023-10-16T06:37:22.420Z,1.25
2023-10-16T06:39:50.551Z,1.20
2023-10-16T06:42:19.932Z,1.13
2023-10-16T06:45:09.563Z,1.40
2023-10-16T06:47:36.773Z,1.43
2023-10-16T06:50:23.893Z,1.35
2023-10-16T06:52:53.765Z,1.40
2023-10-16T06:55:22.425Z,1.98
2023-10-16T06:57:49.320Z,1.50
2023-10-16T07:00:26.855Z,1.37
2023-10-16T07:02:58.710Z,1.67
2023-10-16T07:05:26.730Z,1.67
2023-10-16T07:07:57.723Z,1.88
2023-10-16T07:10:25.705Z,1.40
2023-10-16T07:13:01.793Z,1.40
2023-10-16T07:15:31.978Z,1.38
2023-10-16T07:18:08.517Z,1.58
2023-10-16T07:20:53.179Z,1.77
2023-10-16T07:23:21.484Z,1.42
2023-10-16T07:26:00.991Z,1.90
2023-10-16T07:28:29.108Z,1.65
2023-10-16T07:31:00.703Z,1.73
2023-10-16T07:33:28.495Z,1.60
2023-10-16T07:35:56.738Z,1.25
2023-10-16T07:38:27.145Z,1.30
2023-10-16T07:40:59.347Z,1.50
2023-10-16T07:43:30.346Z,1.23
2023-10-16T07:46:12.872Z,1.10
2023-10-16T07:48:53.330Z,1.38
2023-10-16T07:51:21.504Z,1.40
2023-10-16T07:53:51.913Z,1.38
2023-10-16T07:56:26.444Z,1.42
2023-10-16T07:58:58.265Z,1.73
2023-10-16T08:01:43.050Z,1.58
2023-10-16T08:04:20.893Z,1.43
2023-10-16T08:06:48.933Z,1.25
2023-10-16T08:09:25.246Z,1.60
2023-10-16T08:11:59.227Z,1.42
2023-10-16T08:14:28.082Z,1.40
2023-10-16T08:17:18.213Z,1.20
2023-10-16T08:19:46.970Z,1.23
2023-10-16T08:22:19.366Z,1.52
2023-10-16T08:24:58.973Z,1.13
2023-10-16T08:27:39.061Z,1.50
2023-10-16T08:30:30.767Z,1.47
2023-10-16T08:33:07.510Z,1.10
2023-10-16T08:35:43.602Z,1.10
2023-10-16T08:38:15.693Z,0.75
2023-10-16T08:40:45.617Z,1.10
2023-10-16T08:43:18.260Z,1.00
2023-10-16T08:45:49.792Z,0.70
2023-10-16T08:48:20.144Z,0.60
2023-10-16T08:50:59.740Z,0.65
2023-10-16T08:53:33.170Z,0.88
2023-10-16T08:56:04.388Z,0.93
2023-10-16T08:58:50.817Z,0.70
2023-10-16T09:01:19.225Z,0.80
2023-10-16T09:03:55.812Z,0.70
2023-10-16T09:06:23.810Z,1.02
2023-10-16T09:08:55.451Z,1.00
2023-10-16T09:11:23.645Z,0.80
2023-10-16T09:13:53.986Z,0.90
2023-10-16T09:16:24.711Z,0.70
2023-10-16T09:18:54.349Z,0.60
2023-10-16T09:21:24.898Z,1.10
2023-10-16T09:23:52.833Z,0.52
2023-10-16T09:26:29.974Z,0.52
2023-10-16T09:29:05.386Z,0.60
2023-10-16T09:31:32.898Z,0.65
2023-10-16T09:33:59.606Z,0.80
2023-10-16T09:36:31.002Z,0.73
2023-10-16T09:39:00.971Z,0.60
2023-10-16T09:41:27.510Z,0.70
2023-10-16T09:44:07.485Z,0.70
2023-10-16T09:46:47.663Z,0.50
2023-10-16T09:49:16.170Z,0.52
2023-10-16T09:51:59.436Z,0.70
2023-10-16T09:54:32.427Z,0.52
2023-10-16T09:57:00.740Z,0.50
2023-10-16T09:59:41.352Z,0.60
2023-10-16T10:02:26.835Z,0.60
2023-10-16T10:05:00.459Z,0.57
2023-10-16T10:07:41.918Z,0.60
2023-10-16T10:10:27.537Z,0.40
2023-10-16T10:12:59.190Z,0.80
2023-10-16T10:15:29.816Z,0.57
2023-10-16T10:18:02.734Z,0.30
2023-10-16T10:20:33.413Z,0.30
2023-10-16T10:23:07.862Z,0.50
2023-10-16T10:25:42.784Z,0.30
2023-10-16T10:28:24.353Z,0.30
2023-10-16T10:30:52.035Z,0.30
2023-10-16T10:33:43.590Z,0.40
2023-10-16T10:36:31.830Z,0.73
2023-10-16T10:39:23.380Z,0.30
2023-10-16T10:42:07.085Z,0.40
2023-10-16T10:44:38.713Z,0.30
2023-10-16T10:47:31.981Z,0.40
2023-10-16T10:50:13.178Z,0.30
2023-10-16T10:52:44.693Z,0.40
2023-10-16T10:55:22.736Z,0.30
2023-10-16T10:58:00.142Z,0.50
2023-10-16T11:00:30.603Z,0.40
2023-10-16T11:03:02.850Z,1.13
2023-10-16T11:05:32.278Z,0.87
2023-10-16T11:08:18.938Z,0.50
2023-10-16T11:10:48.481Z,0.32
2023-10-16T11:13:16.942Z,1.50
2023-10-16T11:15:47.723Z,0.80
2023-10-16T11:18:19.658Z,0.80
2023-10-16T11:20:51.139Z,0.57
2023-10-16T11:23:18.704Z,0.47
2023-10-16T11:25:53.434Z,1.02
2023-10-16T11:28:29.591Z,0.40
2023-10-16T11:30:58.198Z,0.50
2023-10-16T11:33:36.478Z,0.30
2023-10-16T11:36:04.705Z,0.40
2023-10-16T11:38:35.267Z,0.40
2023-10-16T11:41:17.816Z,0.40
2023-10-16T11:43:53.388Z,0.30
2023-10-16T11:46:29.605Z,0.50
2023-10-16T11:49:24.031Z,0.40
2023-10-16T11:51:53.103Z,0.50
2023-10-16T11:54:21.700Z,0.82
2023-10-16T11:56:58.728Z,0.50
2023-10-16T11:59:27.158Z,0.30
2023-10-16T12:02:02.454Z,0.30
2023-10-16T12:04:30.916Z,0.52
2023-10-16T12:06:59.216Z,0.70
2023-10-16T12:09:28.291Z,1.10
2023-10-16T12:11:55.617Z,0.50
2023-10-16T12:14:23.413Z,0.52
2023-10-16T12:16:50.078Z,0.40
2023-10-16T12:19:18.353Z,0.60
2023-10-16T12:21:49.214Z,0.70
2023-10-16T12:24:17.443Z,1.10
2023-10-16T12:26:43.915Z,3.72
2023-10-16T12:29:10.648Z,1.60
2023-10-16T12:31:37.343Z,0.80
2023-10-16T12:34:04.589Z,0.80
2023-10-16T12:36:32.507Z,3.15
2023-10-16T12:38:58.918Z,3.95
2023-10-16T12:41:25.387Z,2.03
2023-10-16T12:43:51.849Z,0.88
2023-10-16T12:46:18.947Z,0.70
2023-10-16T12:48:45.988Z,0.68
2023-10-16T12:51:12.850Z,0.75
2023-10-16T12:53:40.589Z,0.60
2023-10-16T12:56:07.701Z,0.45
2023-10-16T12:58:35.157Z,0.50
2023-10-16T13:01:11.843Z,0.50
2023-10-16T13:03:39.062Z,0.68
2023-10-16T13:06:08.400Z,0.63
2023-10-16T13:08:35.358Z,0.45
2023-10-16T13:11:02.106Z,0.60
2023-10-16T13:13:28.691Z,0.40
2023-10-16T13:15:55.677Z,0.60
2023-10-16T13:18:28.763Z,0.50
2023-10-16T13:21:05.383Z,0.63
2023-10-16T13:23:45.937Z,0.63
2023-10-16T13:26:15.935Z,0.60
2023-10-16T13:28:44.020Z,0.45
2023-10-16T13:31:10.653Z,0.50
2023-10-16T13:33:42.171Z,0.63
2023-10-16T13:36:13.189Z,0.60
2023-10-16T13:38:40.994Z,0.47
2023-10-16T13:41:20.169Z,0.70
2023-10-16T13:43:47.611Z,0.50
2023-10-16T13:46:15.390Z,0.90
2023-10-16T13:48:47.085Z,0.60
2023-10-16T13:51:17.307Z,0.75
2023-10-16T13:53:47.276Z,3.67
2023-10-16T13:56:17.189Z,2.50
2023-10-16T13:58:46.316Z,6.90
2023-10-16T14:01:15.286Z,3.47
2023-10-16T14:03:43.412Z,1.45
2023-10-16T14:06:13.933Z,2.30
2023-10-16T14:08:43.362Z,1.90
2023-10-16T14:11:13.111Z,0.70
2023-10-16T14:13:41.372Z,0.60
2023-10-16T14:16:19.268Z,0.60
2023-10-16T14:18:46.150Z,0.80
2023-10-16T14:21:14.031Z,0.60
2023-10-16T14:23:45.049Z,0.50
2023-10-16T14:26:12.388Z,0.40
2023-10-16T14:28:45.420Z,0.68
2023-10-16T14:31:15.187Z,0.60
2023-10-16T14:33:42.063Z,0.40
2023-10-16T14:36:10.857Z,0.60
2023-10-16T14:38:38.507Z,0.40
2023-10-16T14:41:10.614Z,0.63
2023-10-16T14:43:37.884Z,0.60
2023-10-16T14:46:12.124Z,0.50
2023-10-16T14:48:46.040Z,0.68
2023-10-16T14:51:20.054Z,0.50
2023-10-16T14:53:50.054Z,0.50
2023-10-16T14:56:19.831Z,0.77
2023-10-16T15:01:18.068Z,0.70
2023-10-16T15:03:45.899Z,0.63
2023-10-16T15:06:14.250Z,0.80
2023-10-16T15:08:42.400Z,0.93
2023-10-16T15:11:11.743Z,0.50
2023-10-16T15:13:40.028Z,0.63
2023-10-16T15:16:08.634Z,0.67
2023-10-16T15:18:35.890Z,0.60
2023-10-16T15:21:02.893Z,0.45
2023-10-16T15:23:30.459Z,0.70
2023-10-16T15:25:58.490Z,1.00
2023-10-16T15:28:41.365Z,0.60
2023-10-16T15:31:14.570Z,0.60
2023-10-16T15:33:42.307Z,0.75
2023-10-16T15:36:09.056Z,0.80
2023-10-16T15:38:35.602Z,0.98
2023-10-16T15:41:02.071Z,1.53
2023-10-16T15:43:28.835Z,3.20
2023-10-16T15:45:55.660Z,4.25
2023-10-16T15:48:22.317Z,3.75
2023-10-16T15:50:50.150Z,3.30
2023-10-16T15:53:18.247Z,4.20
2023-10-16T15:55:48.051Z,2.97
2023-10-16T15:58:14.868Z,3.55
2023-10-16T16:00:42.745Z,1.20
2023-10-16T16:03:10.051Z,1.20
2023-10-16T16:05:38.055Z,1.13
2023-10-16T16:08:07.158Z,1.40
2023-10-16T16:10:34.585Z,2.08
2023-10-16T16:13:04.565Z,1.20
2023-10-16T16:15:31.201Z,1.40
2023-10-16T16:18:06.282Z,1.83
2023-10-16T16:20:33.488Z,1.42
2023-10-16T16:23:00.112Z,2.38
2023-10-16T16:25:29.816Z,2.40
2023-10-16T16:27:56.255Z,2.30
2023-10-16T16:30:23.108Z,3.53
2023-10-16T16:32:49.983Z,3.15
2023-10-16T16:35:17.473Z,4.25
2023-10-16T16:37:55.090Z,4.28
2023-10-16T16:40:23.019Z,3.75
2023-10-16T16:42:50.332Z,4.17
2023-10-16T16:45:18.305Z,4.20
2023-10-16T16:47:45.796Z,3.53
2023-10-16T16:50:15.319Z,3.50
2023-10-16T16:52:42.228Z,4.22
2023-10-16T16:55:10.606Z,3.67
2023-10-16T16:57:38.072Z,3.45
2023-10-16T17:00:06.406Z,3.42
2023-10-16T17:02:33.013Z,3.03
2023-10-16T17:04:59.533Z,3.03
2023-10-16T17:07:31.146Z,2.90
2023-10-16T17:09:57.946Z,2.42
2023-10-16T17:12:24.386Z,2.45
2023-10-16T17:14:53.397Z,2.42
2023-10-16T17:17:20.142Z,2.50
2023-10-16T17:19:46.624Z,2.27
2023-10-16T17:22:13.812Z,2.55
2023-10-16T17:24:43.838Z,2.25
2023-10-16T17:27:10.461Z,2.22
2023-10-16T17:29:37.019Z,2.92
2023-10-16T17:32:03.427Z,2.80
2023-10-16T17:34:30.130Z,3.10
2023-10-16T17:36:59.348Z,3.75
2023-10-16T17:39:27.298Z,3.35
2023-10-16T17:41:53.833Z,3.65
2023-10-16T17:44:20.235Z,4.07
2023-10-16T17:46:47.960Z,5.18
2023-10-16T17:49:15.367Z,5.15
2023-10-16T17:51:41.895Z,6.25
2023-10-16T17:54:09.970Z,6.25
2023-10-16T17:56:42.254Z,5.97
2023-10-16T17:59:09.481Z,6.22
2023-10-16T18:01:36.045Z,5.35
2023-10-16T18:04:02.661Z,5.07
2023-10-16T18:06:30.522Z,4.93
2023-10-16T18:08:56.965Z,4.43
2023-10-16T18:11:23.383Z,4.50
2023-10-16T18:13:49.794Z,3.50
2023-10-16T18:16:16.228Z,3.70
2023-10-16T18:18:42.775Z,3.58
2023-10-16T18:21:10.280Z,3.33
2023-10-16T18:23:37.105Z,2.67
2023-10-16T18:26:05.039Z,2.90
2023-10-16T18:28:32.880Z,2.88
2023-10-16T18:30:59.325Z,3.20
2023-10-16T18:33:26.263Z,3.27
2023-10-16T18:35:54.014Z,3.70
2023-10-16T18:38:22.164Z,5.18
2023-10-16T18:40:48.571Z,7.85
2023-10-16T18:43:16.345Z,7.43
2023-10-16T18:45:44.268Z,6.40
2023-10-16T18:48:11.173Z,6.22
2023-10-16T18:50:37.697Z,6.82
2023-10-16T18:53:05.110Z,6.75
2023-10-16T18:55:31.604Z,6.95
2023-10-16T18:57:58.759Z,6.90
2023-10-16T19:00:26.212Z,6.10
2023-10-16T19:02:57.401Z,6.55
2023-10-16T19:05:24.971Z,5.65
2023-10-16T19:07:52.516Z,5.50
2023-10-16T19:10:24.526Z,5.30
2023-10-16T19:12:54.628Z,5.32
2023-10-16T19:15:23.067Z,5.75
2023-10-16T19:17:52.971Z,5.18
2023-10-16T19:20:23.814Z,5.35
2023-10-16T19:22:50.456Z,5.57
2023-10-16T19:25:16.915Z,5.18
2023-10-16T19:27:43.386Z,5.65
2023-10-16T19:30:12.731Z,5.35
2023-10-16T19:32:47.004Z,5.30
2023-10-16T19:35:17.395Z,5.23
2023-10-16T19:37:44.985Z,5.65
2023-10-16T19:40:13.910Z,5.43
2023-10-16T19:42:44.195Z,5.22
2023-10-16T19:45:12.141Z,4.97
2023-10-16T19:47:54.795Z,5.07
2023-10-16T19:50:21.388Z,4.90
2023-10-16T19:52:47.993Z,5.00
2023-10-16T19:55:22.170Z,4.82
2023-10-16T19:57:48.628Z,4.95
2023-10-16T20:00:18.947Z,4.33
2023-10-16T20:02:46.743Z,4.35
2023-10-16T20:05:14.449Z,4.40
2023-10-16T20:07:47.323Z,4.85
2023-10-16T20:10:18.443Z,4.38
2023-10-16T20:12:46.764Z,4.90
2023-10-16T20:15:16.430Z,4.72
2023-10-16T20:17:44.127Z,4.65
2023-10-16T20:20:24.373Z,4.78
2023-10-16T20:23:04.093Z,5.30
2023-10-16T20:25:34.033Z,4.03
2023-10-16T20:28:03.548Z,4.25
2023-10-16T20:30:30.369Z,5.10
2023-10-16T20:32:57.861Z,4.40
2023-10-16T20:35:25.590Z,4.15
2023-10-16T20:37:53.412Z,4.10
2023-10-16T20:40:22.894Z,4.38
2023-10-16T20:42:51.261Z,4.25
2023-10-16T20:45:19.975Z,4.25
2023-10-16T20:47:50.637Z,4.22
2023-10-16T20:50:33.029Z,3.70
2023-10-16T20:53:01.022Z,3.90
2023-10-16T20:55:27.976Z,3.55
2023-10-16T20:57:55.708Z,3.63
2023-10-16T21:00:29.465Z,3.35
2023-10-16T21:03:04.873Z,3.63
2023-10-16T21:05:33.849Z,3.80
2023-10-16T21:08:00.946Z,3.83
2023-10-16T21:10:29.026Z,3.75
2023-10-16T21:12:56.970Z,3.60
2023-10-16T21:15:25.698Z,3.57
2023-10-16T21:17:54.280Z,3.25
2023-10-16T21:20:20.851Z,3.15
2023-10-16T21:22:49.672Z,3.13
2023-10-16T21:25:17.448Z,3.45
2023-10-16T21:27:46.970Z,3.10
2023-10-16T21:30:19.699Z,2.70
2023-10-16T21:32:47.932Z,3.45
2023-10-16T21:35:14.774Z,2.97
2023-10-16T21:37:44.694Z,2.85
2023-10-16T21:40:18.388Z,2.67
2023-10-16T21:42:47.633Z,2.90
2023-10-16T21:45:14.653Z,3.40
2023-10-16T21:47:43.892Z,3.47
2023-10-16T21:50:10.855Z,3.20
2023-10-16T21:52:37.459Z,3.27
2023-10-16T21:55:07.459Z,3.58
2023-10-16T21:57:34.869Z,3.88
2023-10-16T22:00:01.707Z,3.22
2023-10-16T22:02:28.623Z,3.47
2023-10-16T22:04:55.287Z,2.90
2023-10-16T22:07:26.501Z,3.20
2023-10-16T22:09:55.106Z,3.08
2023-10-16T22:12:21.644Z,2.83
2023-10-16T22:14:48.977Z,3.22
2023-10-16T22:17:15.599Z,2.97
2023-10-16T22:19:42.201Z,2.90
2023-10-16T22:22:09.026Z,2.40
2023-10-16T22:24:39.951Z,2.70
2023-10-16T22:27:08.623Z,2.22
2023-10-16T22:29:35.362Z,2.70
2023-10-16T22:32:01.896Z,2.75
2023-10-16T22:34:29.111Z,2.38
2023-10-16T22:36:56.038Z,2.15
2023-10-16T22:39:26.237Z,2.17
2023-10-16T22:41:54.925Z,2.43
2023-10-16T22:44:21.916Z,2.67
2023-10-16T22:46:51.174Z,2.60
2023-10-16T22:49:21.484Z,2.25
2023-10-16T22:51:48.756Z,2.33
2023-10-16T22:54:16.843Z,2.17
2023-10-16T22:56:43.595Z,2.53
2023-10-16T22:59:10.111Z,2.50
2023-10-16T23:01:40.672Z,2.45
2023-10-16T23:04:08.217Z,2.00
2023-10-16T23:06:35.471Z,2.00
2023-10-16T23:09:01.966Z,2.50
2023-10-16T23:11:29.130Z,2.17
2023-10-16T23:13:56.897Z,2.08
2023-10-16T23:16:29.100Z,2.20
2023-10-16T23:18:56.645Z,1.90
2023-10-16T23:21:26.320Z,1.85
2023-10-16T23:23:53.060Z,2.45
2023-10-16T23:26:22.651Z,1.90
2023-10-16T23:28:49.472Z,1.98
2023-10-16T23:31:16.162Z,2.47
2023-10-16T23:33:55.092Z,2.35
2023-10-16T23:36:27.221Z,2.03
2023-10-16T23:38:54.114Z,2.17
2023-10-16T23:41:20.779Z,2.25
2023-10-16T23:43:53.355Z,2.47
2023-10-16T23:46:22.407Z,2.03
2023-10-16T23:48:50.347Z,2.17
2023-10-16T23:51:23.160Z,2.17
2023-10-16T23:53:50.322Z,2.60
2023-10-16T23:56:18.486Z,2.10
2023-10-16T23:58:52.183Z,2.10
